createdAt,value
2022-09-22T00:01:28.740Z,99.90
2022-09-22T00:03:58.930Z,99.90
2022-09-22T00:06:30.438Z,99.90
2022-09-22T00:09:01.928Z,99.90
2022-09-22T00:11:33.355Z,99.90
2022-09-22T00:14:03.461Z,99.90
2022-09-22T00:16:34.290Z,99.90
2022-09-22T00:19:03.364Z,99.90
2022-09-22T00:21:32.783Z,99.90
2022-09-22T00:24:03.052Z,99.90
2022-09-22T00:26:31.939Z,99.90
2022-09-22T00:29:00.992Z,99.90
2022-09-22T00:31:30.367Z,99.90
2022-09-22T00:33:58.459Z,99.90
2022-09-22T00:36:27.967Z,99.90
2022-09-22T00:38:58.906Z,99.90
2022-09-22T00:41:29.455Z,99.90
2022-09-22T00:44:32.548Z,99.90
2022-09-22T00:47:03.790Z,99.90
2022-09-22T00:49:37.935Z,99.90
2022-09-22T00:52:06.945Z,99.90
2022-09-22T00:54:36.672Z,99.90
2022-09-22T00:57:08.572Z,99.90
2022-09-22T00:59:37.209Z,99.90
2022-09-22T01:02:05.389Z,99.90
2022-09-22T01:04:33.620Z,99.90
2022-09-22T01:07:03.400Z,99.90
2022-09-22T01:09:33.116Z,99.90
2022-09-22T01:12:03.791Z,99.90
2022-09-22T01:14:42.486Z,99.90
2022-09-22T01:17:21.072Z,99.90
2022-09-22T01:20:23.672Z,99.90
2022-09-22T01:23:30.573Z,99.90
2022-09-22T01:26:27.722Z,99.90
2022-09-22T01:29:36.013Z,99.90
2022-09-22T01:32:11.297Z,99.90
2022-09-22T01:34:47.066Z,99.90
2022-09-22T01:37:22.345Z,99.90
2022-09-22T01:39:54.596Z,99.90
2022-09-22T01:42:28.538Z,99.90
2022-09-22T01:45:01.248Z,99.90
2022-09-22T01:47:37.156Z,99.90
2022-09-22T01:50:10.250Z,99.90
2022-09-22T01:52:41.527Z,99.90
2022-09-22T01:55:13.592Z,99.90
2022-09-22T01:57:48.396Z,99.90
2022-09-22T02:00:16.590Z,99.90
2022-09-22T02:02:52.291Z,99.90
2022-09-22T02:05:28.196Z,99.90
2022-09-22T02:07:58.912Z,99.90
2022-09-22T02:10:33.130Z,99.90
2022-09-22T02:13:01.949Z,99.90
2022-09-22T02:15:47.790Z,99.90
2022-09-22T02:18:23.276Z,99.90
2022-09-22T02:20:52.189Z,99.90
2022-09-22T02:23:20.345Z,99.90
2022-09-22T02:25:48.862Z,99.90
2022-09-22T02:28:19.698Z,99.90
2022-09-22T02:31:04.671Z,99.90
2022-09-22T02:33:41.596Z,99.90
2022-09-22T02:36:24.521Z,99.90
2022-09-22T02:38:59.819Z,99.90
2022-09-22T02:41:33.276Z,99.90
2022-09-22T02:44:05.670Z,99.90
2022-09-22T02:46:39.616Z,99.90
2022-09-22T02:49:12.960Z,99.90
2022-09-22T02:51:41.985Z,99.90
2022-09-22T02:54:10.155Z,99.90
2022-09-22T02:56:38.233Z,99.90
2022-09-22T02:59:06.272Z,99.90
2022-09-22T03:01:34.357Z,99.90
2022-09-22T03:04:02.780Z,99.90
2022-09-22T03:06:32.353Z,99.90
2022-09-22T03:09:00.482Z,99.90
2022-09-22T03:11:28.571Z,99.90
2022-09-22T03:13:56.621Z,99.90
2022-09-22T03:16:24.938Z,99.90
2022-09-22T03:18:52.954Z,99.90
2022-09-22T03:21:20.946Z,99.90
2022-09-22T03:23:50.288Z,99.90
2022-09-22T03:26:18.503Z,99.90
2022-09-22T03:28:46.539Z,99.90
2022-09-22T03:31:14.632Z,99.90
2022-09-22T03:33:42.701Z,99.90
2022-09-22T03:36:10.710Z,99.90
2022-09-22T03:38:38.724Z,99.90
2022-09-22T03:41:08.182Z,99.90
2022-09-22T03:43:36.190Z,99.90
2022-09-22T03:46:04.676Z,99.90
2022-09-22T03:48:32.958Z,99.90
2022-09-22T03:51:00.953Z,99.90
2022-09-22T03:53:29.717Z,99.90
2022-09-22T03:56:06.349Z,99.90
2022-09-22T03:58:36.490Z,99.90
2022-09-22T04:01:05.883Z,99.90
2022-09-22T04:03:34.797Z,99.90
2022-09-22T04:06:03.837Z,99.90
2022-09-22T04:08:31.901Z,99.90
2022-09-22T04:11:01.024Z,99.90
2022-09-22T04:13:29.074Z,99.90
2022-09-22T04:15:58.447Z,99.90
2022-09-22T04:18:26.624Z,99.90
2022-09-22T04:20:58.059Z,99.90
2022-09-22T04:23:26.816Z,99.90
2022-09-22T04:25:55.064Z,99.90
2022-09-22T04:28:23.382Z,99.90
2022-09-22T04:30:51.874Z,99.90
2022-09-22T04:33:21.415Z,99.90
2022-09-22T04:35:49.712Z,99.90
2022-09-22T04:38:18.036Z,99.90
2022-09-22T04:40:46.447Z,99.90
2022-09-22T04:43:14.600Z,99.90
2022-09-22T04:45:45.082Z,99.90
2022-09-22T04:48:13.633Z,99.90
2022-09-22T04:50:47.848Z,99.90
2022-09-22T04:53:16.816Z,99.90
2022-09-22T04:55:45.013Z,99.90
2022-09-22T04:58:13.902Z,99.90
2022-09-22T05:00:41.996Z,99.90
2022-09-22T05:03:11.237Z,99.90
2022-09-22T05:05:39.581Z,99.90
2022-09-22T05:08:10.138Z,99.90
2022-09-22T05:10:38.320Z,99.90
2022-09-22T05:13:06.759Z,99.90
2022-09-22T05:15:34.936Z,99.90
2022-09-22T05:18:03.136Z,99.90
2022-09-22T05:20:31.182Z,99.90
2022-09-22T05:22:59.244Z,99.90
2022-09-22T05:25:28.861Z,99.90
2022-09-22T05:27:57.493Z,99.90
2022-09-22T05:30:27.564Z,99.90
2022-09-22T05:32:55.553Z,99.90
2022-09-22T05:35:25.132Z,99.90
2022-09-22T05:37:54.043Z,99.90
2022-09-22T05:40:26.076Z,99.90
2022-09-22T05:42:55.876Z,99.90
2022-09-22T05:45:24.215Z,99.90
2022-09-22T05:47:53.190Z,99.90
2022-09-22T05:50:23.636Z,99.90
2022-09-22T05:52:51.834Z,99.90
2022-09-22T05:55:20.040Z,99.90
2022-09-22T05:57:48.129Z,99.90
2022-09-22T06:00:17.836Z,99.90
2022-09-22T06:02:45.972Z,99.90
2022-09-22T06:05:17.151Z,99.90
2022-09-22T06:07:46.632Z,99.90
2022-09-22T06:10:14.608Z,99.90
2022-09-22T06:12:42.608Z,99.90
2022-09-22T06:15:11.323Z,99.90
2022-09-22T06:17:40.688Z,99.90
2022-09-22T06:20:09.271Z,99.90
2022-09-22T06:22:37.409Z,99.90
2022-09-22T06:25:08.984Z,99.90
2022-09-22T06:27:37.102Z,99.90
2022-09-22T06:30:06.112Z,99.90
2022-09-22T06:32:34.245Z,99.90
2022-09-22T06:35:03.676Z,99.90
2022-09-22T06:37:32.478Z,99.90
2022-09-22T06:40:00.777Z,99.90
2022-09-22T06:42:28.916Z,99.90
2022-09-22T06:44:57.580Z,99.90
2022-09-22T06:47:25.884Z,99.90
2022-09-22T06:49:54.297Z,99.90
2022-09-22T06:52:23.689Z,99.90
2022-09-22T06:54:56.230Z,99.90
2022-09-22T06:57:25.987Z,99.90
2022-09-22T06:59:54.206Z,99.90
2022-09-22T07:02:23.161Z,99.90
2022-09-22T07:04:52.194Z,99.90
2022-09-22T07:07:20.181Z,99.90
2022-09-22T07:09:49.517Z,99.90
2022-09-22T07:12:20.020Z,99.90
2022-09-22T07:14:49.382Z,99.90
2022-09-22T07:17:17.504Z,99.90
2022-09-22T07:19:46.998Z,99.90
2022-09-22T07:22:15.572Z,99.90
2022-09-22T07:24:43.829Z,99.90
2022-09-22T07:27:14.619Z,99.90
2022-09-22T07:29:42.895Z,99.90
2022-09-22T07:32:10.951Z,99.90
2022-09-22T07:34:38.984Z,99.90
2022-09-22T07:37:07.091Z,99.90
2022-09-22T07:39:35.092Z,99.90
2022-09-22T07:42:03.874Z,99.90
2022-09-22T07:44:50.651Z,99.90
2022-09-22T07:47:38.976Z,99.90
2022-09-22T07:50:07.603Z,99.90
2022-09-22T07:52:35.754Z,99.90
2022-09-22T07:55:03.784Z,99.90
2022-09-22T07:57:33.316Z,99.90
2022-09-22T08:00:03.082Z,99.90
2022-09-22T08:02:40.882Z,99.90
2022-09-22T08:05:11.190Z,99.90
2022-09-22T08:07:39.970Z,99.90
2022-09-22T08:10:10.720Z,99.90
2022-09-22T08:12:39.197Z,99.90
2022-09-22T08:15:09.903Z,99.90
2022-09-22T08:17:39.348Z,99.90
2022-09-22T08:20:09.120Z,99.90
2022-09-22T08:22:37.287Z,99.90
2022-09-22T08:25:05.938Z,99.90
2022-09-22T08:27:36.593Z,99.90
2022-09-22T08:30:07.528Z,99.10
2022-09-22T08:32:37.044Z,99.90
2022-09-22T08:35:06.317Z,99.20
2022-09-22T08:37:34.605Z,99.20
2022-09-22T08:40:03.339Z,98.50
2022-09-22T08:42:32.160Z,98.20
2022-09-22T08:45:04.960Z,99.10
2022-09-22T08:47:58.125Z,97.90
2022-09-22T08:50:51.356Z,97.70
2022-09-22T08:53:23.242Z,96.20
2022-09-22T08:55:58.334Z,98.20
2022-09-22T08:58:38.905Z,95.70
2022-09-22T09:01:21.954Z,95.10
2022-09-22T09:03:57.653Z,97.20
2022-09-22T09:06:35.623Z,94.40
2022-09-22T09:09:23.852Z,94.60
2022-09-22T09:12:12.240Z,94.20
2022-09-22T09:15:01.795Z,94.90
2022-09-22T09:17:31.551Z,93.00
2022-09-22T09:20:04.597Z,93.00
2022-09-22T09:22:43.682Z,93.10
2022-09-22T09:25:22.650Z,92.70
2022-09-22T09:27:57.064Z,93.60
2022-09-22T09:30:25.264Z,92.20
2022-09-22T09:32:56.338Z,92.20
2022-09-22T09:35:39.711Z,90.50
2022-09-22T09:38:14.562Z,90.70
2022-09-22T09:40:43.295Z,92.30
2022-09-22T09:43:12.039Z,91.60
2022-09-22T09:45:55.957Z,92.20
2022-09-22T09:48:30.522Z,93.50
2022-09-22T09:51:05.250Z,93.60
2022-09-22T09:53:41.569Z,92.60
2022-09-22T09:56:22.358Z,91.40
2022-09-22T09:59:14.508Z,91.50
2022-09-22T10:01:44.886Z,94.00
2022-09-22T10:04:19.711Z,95.80
2022-09-22T10:06:50.109Z,96.70
2022-09-22T10:09:26.032Z,97.20
2022-09-22T10:12:01.394Z,95.50
2022-09-22T10:14:33.028Z,92.70
2022-09-22T10:17:01.644Z,90.10
2022-09-22T10:19:31.872Z,89.40
2022-09-22T10:22:25.424Z,92.30
2022-09-22T10:24:55.447Z,88.60
2022-09-22T10:27:25.053Z,90.20
2022-09-22T10:30:21.310Z,91.20
2022-09-22T10:33:07.116Z,94.40
2022-09-22T10:35:37.119Z,91.90
2022-09-22T10:38:13.826Z,93.90
2022-09-22T10:40:45.899Z,92.40
2022-09-22T10:43:30.135Z,91.40
2022-09-22T10:46:12.896Z,90.30
2022-09-22T10:48:46.917Z,88.40
2022-09-22T10:51:23.797Z,87.70
2022-09-22T10:54:22.261Z,87.20
2022-09-22T10:56:54.554Z,86.10
2022-09-22T10:59:53.102Z,87.00
2022-09-22T11:02:49.361Z,88.80
2022-09-22T11:05:48.510Z,87.00
2022-09-22T11:08:36.281Z,86.20
2022-09-22T11:11:34.734Z,86.40
2022-09-22T11:14:16.917Z,85.50
2022-09-22T11:16:58.481Z,83.90
2022-09-22T11:20:03.200Z,88.80
2022-09-22T11:22:51.393Z,85.40
2022-09-22T11:25:31.058Z,84.80
2022-09-22T11:28:17.256Z,88.30
2022-09-22T11:30:48.198Z,81.70
2022-09-22T11:33:58.053Z,82.90
2022-09-22T11:36:39.685Z,83.00
2022-09-22T11:39:40.741Z,80.60
2022-09-22T11:42:19.612Z,76.10
2022-09-22T11:45:00.405Z,75.90
2022-09-22T11:47:55.301Z,77.20
2022-09-22T11:50:36.341Z,72.50
2022-09-22T11:53:44.981Z,75.20
2022-09-22T11:56:33.014Z,71.60
2022-09-22T11:59:06.656Z,66.70
2022-09-22T12:01:40.211Z,70.40
2022-09-22T12:04:20.261Z,70.20
2022-09-22T12:06:51.922Z,65.40
2022-09-22T12:09:35.836Z,68.40
2022-09-22T12:12:06.368Z,67.90
2022-09-22T12:14:36.230Z,66.60
2022-09-22T12:17:10.812Z,68.70
2022-09-22T12:19:55.717Z,64.50
2022-09-22T12:22:31.178Z,60.80
2022-09-22T12:24:59.352Z,58.80
2022-09-22T12:27:29.337Z,59.80
2022-09-22T12:30:00.850Z,57.90
2022-09-22T12:32:35.849Z,58.00
2022-09-22T12:35:04.361Z,53.50
2022-09-22T12:37:34.392Z,50.70
2022-09-22T12:40:19.756Z,49.30
2022-09-22T12:42:51.817Z,48.00
2022-09-22T12:45:28.564Z,43.60
2022-09-22T12:48:00.623Z,41.70
2022-09-22T12:50:36.108Z,40.80
2022-09-22T12:53:06.781Z,38.70
2022-09-22T12:55:41.447Z,40.00
2022-09-22T12:58:41.288Z,37.60
2022-09-22T13:01:30.154Z,42.90
2022-09-22T13:04:13.844Z,39.50
2022-09-22T13:06:56.238Z,37.80
2022-09-22T13:09:26.928Z,35.80
2022-09-22T13:12:25.262Z,35.60
2022-09-22T13:15:19.640Z,38.90
2022-09-22T13:17:49.366Z,35.80
2022-09-22T13:20:22.078Z,37.30
2022-09-22T13:22:51.866Z,36.40
2022-09-22T13:25:25.570Z,33.70
2022-09-22T13:28:12.768Z,29.60
2022-09-22T13:30:42.445Z,30.30
2022-09-22T13:33:21.567Z,29.70
2022-09-22T13:36:00.379Z,29.40
2022-09-22T13:38:29.671Z,27.70
2022-09-22T13:40:57.824Z,28.80
2022-09-22T13:43:31.876Z,29.60
2022-09-22T13:46:02.396Z,29.20
2022-09-22T13:48:33.475Z,30.80
2022-09-22T13:51:05.594Z,31.30
2022-09-22T13:53:33.768Z,34.40
2022-09-22T13:56:02.746Z,38.60
2022-09-22T13:58:37.113Z,38.40
2022-09-22T14:01:14.854Z,39.00
2022-09-22T14:03:43.483Z,39.00
2022-09-22T14:06:15.540Z,40.90
2022-09-22T14:08:45.374Z,40.30
2022-09-22T14:11:15.718Z,42.50
2022-09-22T14:13:57.238Z,44.00
2022-09-22T14:16:29.522Z,46.60
2022-09-22T14:19:03.028Z,47.80
2022-09-22T14:21:33.299Z,45.80
2022-09-22T14:24:02.535Z,48.90
2022-09-22T14:26:35.670Z,47.70
2022-09-22T14:29:15.394Z,47.80
2022-09-22T14:31:47.337Z,50.20
2022-09-22T14:34:20.990Z,47.10
2022-09-22T14:36:52.765Z,48.30
2022-09-22T14:39:30.707Z,50.50
2022-09-22T14:42:07.097Z,50.90
2022-09-22T14:44:41.889Z,51.70
2022-09-22T14:47:19.309Z,53.30
2022-09-22T14:49:48.332Z,52.60
2022-09-22T14:52:26.722Z,54.00
2022-09-22T14:54:56.861Z,55.90
2022-09-22T14:57:27.447Z,57.70
2022-09-22T15:00:16.163Z,57.10
2022-09-22T15:02:53.207Z,57.00
2022-09-22T15:05:30.302Z,56.90
2022-09-22T15:08:00.756Z,58.00
2022-09-22T15:10:30.751Z,57.90
2022-09-22T15:13:18.375Z,58.70
2022-09-22T15:15:48.582Z,59.30
2022-09-22T15:18:19.619Z,58.80
2022-09-22T15:20:50.619Z,59.80
2022-09-22T15:23:24.005Z,58.20
2022-09-22T15:25:52.429Z,58.70
2022-09-22T15:28:22.772Z,59.30
2022-09-22T15:30:52.897Z,59.40
2022-09-22T15:33:22.483Z,62.10
2022-09-22T15:35:54.461Z,61.00
2022-09-22T15:38:27.425Z,60.40
2022-09-22T15:40:56.153Z,61.30
2022-09-22T15:43:30.671Z,61.30
2022-09-22T15:46:01.618Z,61.40
2022-09-22T15:48:32.352Z,62.10
2022-09-22T15:51:04.422Z,62.50
2022-09-22T15:53:35.345Z,63.40
2022-09-22T15:56:06.423Z,62.20
2022-09-22T15:58:37.030Z,62.70
2022-09-22T16:01:05.619Z,62.70
2022-09-22T16:03:40.218Z,63.60
2022-09-22T16:06:12.564Z,66.10
2022-09-22T16:08:44.512Z,66.60
2022-09-22T16:11:14.885Z,66.90
2022-09-22T16:13:43.606Z,70.30
2022-09-22T16:16:12.533Z,68.40
2022-09-22T16:18:41.781Z,67.50
2022-09-22T16:21:20.049Z,72.30
2022-09-22T16:23:49.711Z,74.80
2022-09-22T16:26:17.718Z,76.20
2022-09-22T16:28:45.772Z,77.90
2022-09-22T16:31:15.660Z,79.70
2022-09-22T16:33:44.218Z,80.50
2022-09-22T16:36:12.340Z,85.00
2022-09-22T16:38:40.409Z,88.40
2022-09-22T16:41:19.901Z,90.70
2022-09-22T16:43:48.256Z,92.50
2022-09-22T16:46:29.945Z,95.00
2022-09-22T16:49:00.411Z,95.90
2022-09-22T16:51:29.044Z,97.80
2022-09-22T16:53:57.605Z,99.80
2022-09-22T16:56:28.761Z,99.90
2022-09-22T16:58:57.934Z,99.90
2022-09-22T17:01:25.977Z,99.90
2022-09-22T17:03:54.034Z,99.90
2022-09-22T17:06:24.283Z,99.90
2022-09-22T17:08:53.498Z,99.90
2022-09-22T17:11:24.571Z,99.90
2022-09-22T17:13:55.608Z,99.90
2022-09-22T17:16:27.422Z,99.90
2022-09-22T17:18:57.186Z,99.90
2022-09-22T17:21:25.229Z,99.90
2022-09-22T17:24:00.284Z,99.90
2022-09-22T17:26:29.853Z,99.90
2022-09-22T17:29:00.323Z,99.90
2022-09-22T17:31:31.125Z,99.90
2022-09-22T17:33:59.486Z,99.90
2022-09-22T17:36:29.133Z,99.90
2022-09-22T17:38:59.641Z,99.90
2022-09-22T17:41:29.571Z,99.90
2022-09-22T17:44:02.220Z,99.90
2022-09-22T17:46:32.535Z,99.90
2022-09-22T17:49:18.404Z,99.90
2022-09-22T17:52:05.802Z,99.90
2022-09-22T17:54:53.902Z,99.90
2022-09-22T17:57:23.501Z,99.90
2022-09-22T17:59:55.280Z,99.90
2022-09-22T18:02:24.719Z,99.90
2022-09-22T18:04:52.884Z,99.90
2022-09-22T18:07:23.135Z,99.90
2022-09-22T18:09:53.822Z,99.90
2022-09-22T18:12:24.641Z,99.90
2022-09-22T18:14:55.874Z,99.90
2022-09-22T18:17:26.277Z,99.90
2022-09-22T18:19:55.655Z,99.90
2022-09-22T18:22:25.530Z,99.90
2022-09-22T18:24:55.562Z,99.90
2022-09-22T18:27:26.873Z,99.90
2022-09-22T18:29:58.606Z,99.90
2022-09-22T18:32:27.368Z,99.90
2022-09-22T18:34:55.946Z,99.90
2022-09-22T18:37:24.928Z,99.90
2022-09-22T18:39:52.967Z,99.90
2022-09-22T18:42:24.121Z,99.90
2022-09-22T18:44:52.360Z,99.90
2022-09-22T18:47:23.117Z,99.90
2022-09-22T18:49:52.279Z,99.90
2022-09-22T18:52:24.281Z,99.90
2022-09-22T18:54:54.496Z,99.90
2022-09-22T18:57:24.525Z,99.90
2022-09-22T18:59:53.882Z,99.90
2022-09-22T19:02:23.537Z,99.90
2022-09-22T19:04:52.217Z,99.90
2022-09-22T19:07:41.432Z,99.90
2022-09-22T19:10:11.628Z,99.90
2022-09-22T19:12:40.307Z,99.90
2022-09-22T19:15:13.272Z,99.90
2022-09-22T19:17:44.751Z,99.90
2022-09-22T19:20:14.465Z,99.90
2022-09-22T19:22:42.810Z,99.90
2022-09-22T19:25:12.016Z,99.90
2022-09-22T19:27:40.659Z,99.90
2022-09-22T19:30:09.764Z,99.90
2022-09-22T19:32:38.108Z,99.90
2022-09-22T19:35:09.194Z,99.90
2022-09-22T19:37:38.607Z,99.90
2022-09-22T19:40:07.856Z,99.90
2022-09-22T19:42:40.110Z,99.90
2022-09-22T19:45:09.239Z,99.90
2022-09-22T19:47:37.544Z,99.90
2022-09-22T19:50:08.761Z,99.90
2022-09-22T19:52:37.695Z,99.90
2022-09-22T19:55:06.756Z,99.90
2022-09-22T19:57:41.299Z,99.90
2022-09-22T20:00:11.978Z,99.90
2022-09-22T20:02:40.562Z,99.90
2022-09-22T20:05:19.354Z,99.90
2022-09-22T20:07:47.518Z,99.90
2022-09-22T20:10:17.121Z,99.90
2022-09-22T20:12:45.137Z,99.90
2022-09-22T20:15:15.722Z,99.90
2022-09-22T20:17:45.886Z,99.90
2022-09-22T20:20:16.242Z,99.90
2022-09-22T20:22:45.718Z,99.90
2022-09-22T20:25:25.848Z,99.90
2022-09-22T20:27:54.644Z,99.90
2022-09-22T20:30:22.872Z,99.90
2022-09-22T20:32:51.468Z,99.90
2022-09-22T20:35:21.784Z,99.90
2022-09-22T20:37:51.390Z,99.90
2022-09-22T20:40:22.032Z,99.90
2022-09-22T20:42:51.215Z,99.90
2022-09-22T20:45:20.876Z,99.90
2022-09-22T20:47:48.901Z,99.90
2022-09-22T20:50:17.041Z,99.90
2022-09-22T20:52:47.173Z,99.90
2022-09-22T20:55:15.468Z,99.90
2022-09-22T20:57:43.688Z,99.90
2022-09-22T21:00:15.186Z,99.90
2022-09-22T21:02:43.439Z,99.90
2022-09-22T21:05:11.553Z,99.90
2022-09-22T21:07:39.565Z,99.90
2022-09-22T21:10:27.054Z,99.90
2022-09-22T21:12:56.050Z,99.90
2022-09-22T21:15:24.273Z,99.90
2022-09-22T21:17:52.654Z,99.90
2022-09-22T21:20:21.206Z,99.90
2022-09-22T21:22:49.213Z,99.90
2022-09-22T21:25:20.072Z,99.90
2022-09-22T21:27:48.075Z,99.90
2022-09-22T21:30:16.212Z,99.90
2022-09-22T21:32:44.308Z,99.90
2022-09-22T21:35:16.382Z,99.90
2022-09-22T21:37:44.602Z,99.90
2022-09-22T21:40:13.053Z,99.90
2022-09-22T21:42:42.437Z,99.90
2022-09-22T21:45:12.838Z,99.90
2022-09-22T21:47:40.882Z,99.90
2022-09-22T21:50:10.078Z,99.90
2022-09-22T21:52:38.484Z,99.90
2022-09-22T21:55:07.641Z,99.90
2022-09-22T21:57:35.922Z,99.90
2022-09-22T22:00:07.629Z,99.90
2022-09-22T22:02:53.903Z,99.90
2022-09-22T22:05:22.041Z,99.90
2022-09-22T22:07:50.712Z,99.90
2022-09-22T22:10:19.106Z,99.90
2022-09-22T22:12:47.149Z,99.90
2022-09-22T22:15:16.715Z,99.90
2022-09-22T22:17:44.693Z,99.90
2022-09-22T22:20:12.658Z,99.90
2022-09-22T22:22:40.695Z,99.90
2022-09-22T22:25:17.760Z,99.90
2022-09-22T22:27:46.519Z,99.90
2022-09-22T22:30:17.830Z,99.90
2022-09-22T22:32:46.300Z,99.90
2022-09-22T22:35:14.459Z,99.90
2022-09-22T22:37:45.598Z,99.90
2022-09-22T22:40:13.740Z,99.90
2022-09-22T22:42:41.895Z,99.90
2022-09-22T22:45:11.229Z,99.90
2022-09-22T22:47:40.641Z,99.90
2022-09-22T22:50:10.082Z,99.90
2022-09-22T22:52:42.035Z,99.90
2022-09-22T22:55:10.377Z,99.90
2022-09-22T22:57:38.406Z,99.90
2022-09-22T23:00:07.464Z,99.90
2022-09-22T23:02:35.521Z,99.90
2022-09-22T23:05:05.276Z,99.90
2022-09-22T23:07:33.328Z,99.90
2022-09-22T23:10:07.002Z,99.90
2022-09-22T23:12:36.009Z,99.90
2022-09-22T23:15:05.295Z,99.90
2022-09-22T23:17:33.379Z,99.90
2022-09-22T23:20:01.906Z,99.90
2022-09-22T23:22:31.530Z,99.90
2022-09-22T23:25:00.022Z,99.90
2022-09-22T23:27:28.310Z,99.90
2022-09-22T23:29:57.124Z,99.90
2022-09-22T23:32:25.511Z,99.90
2022-09-22T23:34:53.595Z,99.90
2022-09-22T23:37:24.741Z,99.90
2022-09-22T23:39:54.905Z,99.90
2022-09-22T23:42:23.379Z,99.90
2022-09-22T23:44:51.506Z,99.90
2022-09-22T23:47:19.539Z,99.90
2022-09-22T23:49:47.566Z,99.90
2022-09-22T23:52:15.582Z,99.90
2022-09-22T23:54:44.617Z,99.90
2022-09-22T23:57:13.974Z,99.90
2022-09-22T23:59:41.977Z,99.90
